Time;durP1;ratioP1;P1;durP2;ratioP2;P2;SDS_P1;SDS_P2;PMS_P1;PMS_P2;Temp;Humidity;BMP_temperature;BMP_pressure;BME280_temperature;BME280_humidity;BME280_pressure;Samples;Min_cycle;Max_cycle;Signal;HPM_P1;HPM_P2
2024/01/27 00:00:22;;;;;;;;;;;17.30;62.90;;;;;;5018027;28;1563;-66
2024/01/27 00:02:47;;;;;;;;;;;17.30;62.90;;;;;;5019690;28;1455;-65
2024/01/27 00:05:13;;;;;;;;;;;17.30;62.90;;;;;;5018240;28;1910;-65
2024/01/27 00:07:38;;;;;;;;;;;17.20;62.90;;;;;;5017980;28;1489;-66
2024/01/27 00:10:04;;;;;;;;;;;17.20;62.90;;;;;;5018638;28;1295;-67
2024/01/27 00:12:29;;;;;;;;;;;17.20;62.90;;;;;;5018897;28;1491;-65
2024/01/27 00:14:55;;;;;;;;;;;17.20;62.90;;;;;;5019241;28;1555;-64
2024/01/27 00:17:23;;;;;;;;;;;17.20;62.90;;;;;;5019086;28;1268;-67
2024/01/27 00:19:52;;;;;;;;;;;17.20;62.90;;;;;;5021596;28;1535;-67
2024/01/27 00:22:18;;;;;;;;;;;17.20;62.90;;;;;;5018989;28;1677;-65
2024/01/27 00:24:43;;;;;;;;;;;17.20;62.90;;;;;;5020615;28;1898;-66
2024/01/27 00:27:08;;;;;;;;;;;17.20;63.00;;;;;;5017177;28;1427;-66
2024/01/27 00:29:34;;;;;;;;;;;17.20;63.00;;;;;;5015694;28;1459;-66
2024/01/27 00:31:59;;;;;;;;;;;17.20;63.00;;;;;;5015268;28;1540;-67
2024/01/27 00:34:28;;;;;;;;;;;17.20;63.00;;;;;;5016938;28;1540;-66
2024/01/27 00:36:53;;;;;;;;;;;17.20;63.00;;;;;;5018636;28;1566;-66
2024/01/27 00:39:19;;;;;;;;;;;17.20;63.00;;;;;;5016727;28;1542;-66
2024/01/27 00:41:44;;;;;;;;;;;17.20;63.00;;;;;;5020382;28;1386;-66
2024/01/27 00:44:10;;;;;;;;;;;17.20;63.10;;;;;;5020630;28;1965;-67
2024/01/27 00:46:36;;;;;;;;;;;17.20;63.10;;;;;;5017959;28;1544;-67
2024/01/27 00:49:02;;;;;;;;;;;17.20;63.10;;;;;;5018595;28;1369;-66
2024/01/27 00:51:27;;;;;;;;;;;17.20;63.10;;;;;;5020402;28;1461;-67
2024/01/27 00:53:53;;;;;;;;;;;17.20;63.10;;;;;;5021310;28;1143;-66
2024/01/27 00:56:18;;;;;;;;;;;17.20;63.10;;;;;;5022747;28;1340;-67
2024/01/27 00:58:44;;;;;;;;;;;17.20;63.10;;;;;;5019401;28;1342;-66
2024/01/27 01:01:09;;;;;;;;;;;17.20;63.10;;;;;;5016741;28;1316;-65
2024/01/27 01:03:35;;;;;;;;;;;17.20;63.10;;;;;;5017058;28;1906;-66
2024/01/27 01:06:01;;;;;;;;;;;17.20;63.20;;;;;;5025688;28;1446;-66
2024/01/27 01:08:26;;;;;;;;;;;17.20;63.20;;;;;;5015292;28;1423;-66
2024/01/27 01:10:51;;;;;;;;;;;17.10;63.10;;;;;;5016966;28;1674;-66
2024/01/27 01:13:17;;;;;;;;;;;17.10;63.10;;;;;;5019628;28;1561;-67
2024/01/27 01:15:42;;;;;;;;;;;17.10;63.10;;;;;;5016458;28;1475;-66
2024/01/27 01:18:08;;;;;;;;;;;17.20;63.20;;;;;;5020145;28;1340;-67
2024/01/27 01:20:33;;;;;;;;;;;17.20;63.20;;;;;;5016560;28;1696;-65
2024/01/27 01:22:59;;;;;;;;;;;17.10;63.20;;;;;;5016622;28;1746;-68
2024/01/27 01:25:24;;;;;;;;;;;17.10;63.20;;;;;;5017766;28;1898;-68
2024/01/27 01:27:50;;;;;;;;;;;17.10;63.20;;;;;;5017808;28;1490;-68
2024/01/27 01:30:16;;;;;;;;;;;17.10;63.20;;;;;;5020055;28;1470;-68
2024/01/27 01:32:42;;;;;;;;;;;17.10;63.20;;;;;;5023506;28;1453;-68
2024/01/27 01:35:08;;;;;;;;;;;17.10;63.20;;;;;;5018828;28;1581;-68
2024/01/27 01:37:33;;;;;;;;;;;17.20;63.30;;;;;;5002215;28;1515;-68
2024/01/27 01:39:59;;;;;;;;;;;17.10;63.20;;;;;;5019838;28;1651;-68
2024/01/27 01:42:24;;;;;;;;;;;17.10;63.20;;;;;;5029241;28;1119;-68
2024/01/27 01:44:51;;;;;;;;;;;17.10;63.20;;;;;;5024344;28;1894;-68
2024/01/27 01:47:16;;;;;;;;;;;17.10;63.20;;;;;;5020794;28;1229;-68
2024/01/27 01:49:41;;;;;;;;;;;17.10;63.30;;;;;;5019964;28;1332;-68
2024/01/27 01:52:07;;;;;;;;;;;17.10;63.30;;;;;;5019972;28;1173;-68
2024/01/27 01:54:33;;;;;;;;;;;17.10;63.30;;;;;;5023087;28;1198;-69
2024/01/27 01:56:58;;;;;;;;;;;17.10;63.30;;;;;;5007020;28;1273;-69
2024/01/27 01:59:24;;;;;;;;;;;17.10;63.30;;;;;;5005883;28;1272;-68
2024/01/27 02:01:49;;;;;;;;;;;17.10;63.30;;;;;;5018275;28;1286;-68
2024/01/27 02:04:15;;;;;;;;;;;17.10;63.30;;;;;;5021560;28;1960;-68
2024/01/27 02:06:40;;;;;;;;;;;17.10;63.30;;;;;;5020342;28;1476;-68
2024/01/27 02:09:06;;;;;;;;;;;17.10;63.40;;;;;;5021252;28;1520;-68
2024/01/27 02:11:31;;;;;;;;;;;17.10;63.40;;;;;;5019774;28;1475;-66
2024/01/27 02:13:57;;;;;;;;;;;17.10;63.40;;;;;;5028728;28;1511;-66
2024/01/27 02:16:22;;;;;;;;;;;17.10;63.40;;;;;;5022100;28;1563;-66
2024/01/27 02:18:48;;;;;;;;;;;17.10;63.40;;;;;;5021288;28;1658;-67
2024/01/27 02:21:13;;;;;;;;;;;17.10;63.40;;;;;;5021736;28;1466;-66
2024/01/27 02:23:39;;;;;;;;;;;17.10;63.40;;;;;;5020370;28;1961;-66
2024/01/27 02:26:04;;;;;;;;;;;17.10;63.40;;;;;;5023853;28;1778;-66
2024/01/27 02:28:33;;;;;;;;;;;17.10;63.40;;;;;;5021925;28;1584;-67
2024/01/27 02:30:59;;;;;;;;;;;17.10;63.40;;;;;;5018621;28;1489;-68
2024/01/27 02:33:25;;;;;;;;;;;17.10;63.50;;;;;;5027034;28;1387;-67
2024/01/27 02:35:51;;;;;;;;;;;17.10;63.40;;;;;;5018203;28;1464;-68
2024/01/27 02:38:16;;;;;;;;;;;17.10;63.50;;;;;;5021130;28;1373;-67
2024/01/27 02:40:41;;;;;;;;;;;17.10;63.50;;;;;;5021491;28;1344;-67
2024/01/27 02:43:07;;;;;;;;;;;17.10;63.50;;;;;;5023103;28;1911;-67
2024/01/27 02:45:32;;;;;;;;;;;17.10;63.50;;;;;;5019097;28;1264;-67
2024/01/27 02:47:58;;;;;;;;;;;17.00;63.40;;;;;;5019209;28;1477;-66
2024/01/27 02:50:24;;;;;;;;;;;17.10;63.50;;;;;;5018251;28;1361;-67
2024/01/27 02:52:49;;;;;;;;;;;17.10;63.50;;;;;;5018217;28;1402;-68
2024/01/27 02:55:15;;;;;;;;;;;17.10;63.50;;;;;;5021293;28;1446;-69
2024/01/27 02:57:40;;;;;;;;;;;17.10;63.50;;;;;;5020553;28;1458;-67
2024/01/27 03:00:06;;;;;;;;;;;17.10;63.50;;;;;;5020991;28;1046;-68
2024/01/27 03:02:32;;;;;;;;;;;17.10;63.50;;;;;;5020491;28;1628;-68
2024/01/27 03:04:57;;;;;;;;;;;17.00;63.40;;;;;;5018838;28;1959;-68
2024/01/27 03:07:22;;;;;;;;;;;17.10;63.50;;;;;;5018083;28;1387;-68
2024/01/27 03:09:48;;;;;;;;;;;17.10;63.50;;;;;;5015811;28;1008;-67
2024/01/27 03:12:15;;;;;;;;;;;17.10;63.50;;;;;;5019881;28;1317;-67
2024/01/27 03:14:41;;;;;;;;;;;17.10;63.50;;;;;;5018774;28;1552;-66
2024/01/27 03:17:07;;;;;;;;;;;17.10;63.50;;;;;;5022366;28;1481;-68
2024/01/27 03:19:32;;;;;;;;;;;17.10;63.50;;;;;;5018106;28;1467;-67
2024/01/27 03:21:57;;;;;;;;;;;17.10;63.60;;;;;;5018441;28;1520;-67
2024/01/27 03:24:23;;;;;;;;;;;17.10;63.60;;;;;;5020986;28;1953;-67
2024/01/27 03:26:48;;;;;;;;;;;17.00;63.50;;;;;;5019169;28;1449;-67
2024/01/27 03:29:14;;;;;;;;;;;17.10;63.60;;;;;;5021695;28;1429;-67
2024/01/27 03:31:39;;;;;;;;;;;17.10;63.60;;;;;;5022872;28;1449;-66
2024/01/27 03:34:05;;;;;;;;;;;17.10;63.60;;;;;;5020206;28;1716;-68
2024/01/27 03:36:31;;;;;;;;;;;17.10;63.60;;;;;;5019131;28;1292;-68
2024/01/27 03:38:56;;;;;;;;;;;17.00;63.90;;;;;;5019812;28;1229;-66
2024/01/27 03:41:22;;;;;;;;;;;17.00;63.50;;;;;;5027285;28;1533;-66
2024/01/27 03:43:47;;;;;;;;;;;17.00;63.50;;;;;;5015730;28;1930;-65
2024/01/27 03:46:13;;;;;;;;;;;17.00;63.50;;;;;;5017959;28;1416;-66
2024/01/27 03:48:38;;;;;;;;;;;17.00;63.50;;;;;;5022395;28;1342;-67
2024/01/27 03:51:04;;;;;;;;;;;17.00;63.60;;;;;;5022316;28;1522;-66
2024/01/27 03:53:29;;;;;;;;;;;17.00;63.50;;;;;;5019103;28;1478;-66
2024/01/27 03:55:58;;;;;;;;;;;17.00;63.60;;;;;;5019777;28;1460;-68
2024/01/27 03:58:23;;;;;;;;;;;17.00;63.60;;;;;;5020611;28;1540;-68
2024/01/27 04:00:49;;;;;;;;;;;17.00;63.60;;;;;;5016638;28;1396;-68
2024/01/27 04:03:14;;;;;;;;;;;17.00;63.60;;;;;;5015923;28;1914;-67
2024/01/27 04:05:40;;;;;;;;;;;17.00;63.60;;;;;;5018929;28;1393;-67
2024/01/27 04:08:06;;;;;;;;;;;17.00;63.60;;;;;;5020018;28;1713;-68
2024/01/27 04:10:31;;;;;;;;;;;17.00;63.60;;;;;;5019569;28;1490;-67
2024/01/27 04:12:57;;;;;;;;;;;17.00;63.60;;;;;;5021571;28;1341;-69
2024/01/27 04:15:22;;;;;;;;;;;17.00;63.60;;;;;;5023553;28;1553;-68
2024/01/27 04:17:48;;;;;;;;;;;17.00;63.60;;;;;;5017025;28;1564;-68
2024/01/27 04:20:13;;;;;;;;;;;17.00;63.60;;;;;;5017437;28;1620;-67
2024/01/27 04:22:39;;;;;;;;;;;17.00;63.60;;;;;;5018495;28;1581;-68
2024/01/27 04:25:05;;;;;;;;;;;17.00;63.60;;;;;;5016956;28;1898;-68
2024/01/27 04:27:32;;;;;;;;;;;17.00;63.60;;;;;;5017957;28;1489;-68
2024/01/27 04:29:57;;;;;;;;;;;17.00;63.70;;;;;;5005687;28;1360;-68
2024/01/27 04:32:23;;;;;;;;;;;17.00;63.60;;;;;;5019530;28;1611;-68
2024/01/27 04:34:49;;;;;;;;;;;17.00;63.60;;;;;;5017934;28;1340;-68
2024/01/27 04:37:14;;;;;;;;;;;17.00;63.70;;;;;;5016648;28;1370;-68
2024/01/27 04:39:39;;;;;;;;;;;17.00;63.70;;;;;;5025984;28;993;-68
2024/01/27 04:42:06;;;;;;;;;;;17.00;63.70;;;;;;5018690;28;1767;-68
2024/01/27 04:44:31;;;;;;;;;;;17.00;63.70;;;;;;5016984;28;1907;-67
2024/01/27 04:46:57;;;;;;;;;;;17.00;63.70;;;;;;5019173;28;1678;-68
2024/01/27 04:49:22;;;;;;;;;;;17.00;63.70;;;;;;5016293;28;1585;-67
2024/01/27 04:51:48;;;;;;;;;;;17.00;63.70;;;;;;5016478;28;1370;-68
2024/01/27 04:54:13;;;;;;;;;;;17.00;63.70;;;;;;5020114;28;1335;-67
2024/01/27 04:56:39;;;;;;;;;;;17.00;63.70;;;;;;5017690;28;1289;-68
2024/01/27 04:59:04;;;;;;;;;;;17.00;63.70;;;;;;5019025;28;1310;-68
2024/01/27 05:01:31;;;;;;;;;;;17.00;63.70;;;;;;5016664;28;1594;-68
2024/01/27 05:03:56;;;;;;;;;;;17.00;63.70;;;;;;5021258;28;2000;-68
2024/01/27 05:06:22;;;;;;;;;;;17.00;63.70;;;;;;5019643;28;1478;-68
2024/01/27 05:08:47;;;;;;;;;;;17.00;63.70;;;;;;5021537;28;1470;-68
2024/01/27 05:11:13;;;;;;;;;;;17.00;63.70;;;;;;5023978;28;1320;-68
2024/01/27 05:13:39;;;;;;;;;;;17.00;63.60;;;;;;5018857;28;1394;-68
2024/01/27 05:16:05;;;;;;;;;;;17.00;63.60;;;;;;5019578;28;1774;-68
2024/01/27 05:18:31;;;;;;;;;;;17.10;63.60;;;;;;5019724;28;1254;-68
2024/01/27 05:20:56;;;;;;;;;;;17.00;63.40;;;;;;5020296;28;1520;-68
2024/01/27 05:23:23;;;;;;;;;;;17.10;63.40;;;;;;5018799;28;1965;-68
2024/01/27 05:25:48;;;;;;;;;;;17.20;63.30;;;;;;5021744;28;1527;-68
2024/01/27 05:28:14;;;;;;;;;;;17.20;63.10;;;;;;5021484;28;1333;-67
2024/01/27 05:30:39;;;;;;;;;;;17.20;63.00;;;;;;5021537;28;1360;-68
2024/01/27 05:33:05;;;;;;;;;;;17.20;62.90;;;;;;5020609;28;1586;-67
2024/01/27 05:35:30;;;;;;;;;;;17.20;62.80;;;;;;5019340;28;1534;-68
2024/01/27 05:37:56;;;;;;;;;;;17.30;62.70;;;;;;5023062;28;1547;-68
2024/01/27 05:40:21;;;;;;;;;;;17.30;62.60;;;;;;5022814;28;1600;-68
2024/01/27 05:42:47;;;;;;;;;;;17.30;62.50;;;;;;5029039;28;1340;-68
2024/01/27 05:45:13;;;;;;;;;;;17.40;62.40;;;;;;5021626;28;1898;-67
2024/01/27 05:47:38;;;;;;;;;;;17.40;62.30;;;;;;5020095;28;1303;-68
2024/01/27 05:50:04;;;;;;;;;;;17.40;62.30;;;;;;5020941;28;1328;-67
2024/01/27 05:52:29;;;;;;;;;;;17.40;62.20;;;;;;5020129;28;1256;-68
2024/01/27 05:54:55;;;;;;;;;;;17.50;62.20;;;;;;5019931;28;1325;-68
2024/01/27 05:57:20;;;;;;;;;;;17.50;62.10;;;;;;5019492;28;1473;-68
2024/01/27 05:59:46;;;;;;;;;;;17.50;62.00;;;;;;5024955;28;1664;-68
2024/01/27 06:02:11;;;;;;;;;;;17.50;62.00;;;;;;5019953;28;1542;-67
2024/01/27 06:04:37;;;;;;;;;;;17.50;61.90;;;;;;5025245;28;1906;-67
2024/01/27 06:07:02;;;;;;;;;;;17.50;61.90;;;;;;5021234;28;1692;-67
2024/01/27 06:09:28;;;;;;;;;;;17.50;61.80;;;;;;5021623;28;1547;-66
2024/01/27 06:11:53;;;;;;;;;;;17.50;61.80;;;;;;5020692;28;1368;-66
2024/01/27 06:14:19;;;;;;;;;;;17.50;61.70;;;;;;5020288;28;1516;-66
2024/01/27 06:16:44;;;;;;;;;;;17.60;61.80;;;;;;5022943;28;1360;-67
2024/01/27 06:19:10;;;;;;;;;;;17.60;61.70;;;;;;5023263;28;1699;-67
2024/01/27 06:21:36;;;;;;;;;;;17.60;61.70;;;;;;5020385;28;1558;-67
2024/01/27 06:24:01;;;;;;;;;;;17.60;61.70;;;;;;5019063;28;1907;-67
2024/01/27 06:26:27;;;;;;;;;;;17.60;61.70;;;;;;5021698;28;1447;-67
2024/01/27 06:28:52;;;;;;;;;;;17.60;61.60;;;;;;5019608;28;1270;-66
2024/01/27 06:31:18;;;;;;;;;;;17.60;61.60;;;;;;5020966;28;1650;-67
2024/01/27 06:33:43;;;;;;;;;;;17.60;61.60;;;;;;5018897;28;1339;-67
2024/01/27 06:36:09;;;;;;;;;;;17.60;61.60;;;;;;5021139;28;1328;-67
2024/01/27 06:38:36;;;;;;;;;;;17.60;61.60;;;;;;5022055;28;1475;-67
2024/01/27 06:41:03;;;;;;;;;;;17.60;61.60;;;;;;5018055;28;1342;-67
2024/01/27 06:43:28;;;;;;;;;;;17.60;61.50;;;;;;5019040;28;1887;-67
2024/01/27 06:45:56;;;;;;;;;;;17.60;61.60;;;;;;5021633;28;1505;-67
2024/01/27 06:48:21;;;;;;;;;;;17.60;61.50;;;;;;5021063;28;1578;-67
2024/01/27 06:50:46;;;;;;;;;;;17.60;61.50;;;;;;5019764;28;1858;-69
2024/01/27 06:53:12;;;;;;;;;;;17.60;61.50;;;;;;5021120;28;1912;-70
2024/01/27 06:55:37;;;;;;;;;;;17.60;61.60;;;;;;5018507;28;1294;-66
2024/01/27 06:58:03;;;;;;;;;;;17.60;61.60;;;;;;5020459;28;1378;-67
2024/01/27 07:00:28;;;;;;;;;;;17.60;61.60;;;;;;5018986;28;1443;-66
2024/01/27 07:02:55;;;;;;;;;;;17.60;61.60;;;;;;5010238;28;4149;-68
2024/01/27 07:05:22;;;;;;;;;;;17.60;61.60;;;;;;5012628;28;4651;-67
2024/01/27 07:07:47;;;;;;;;;;;17.60;62.00;;;;;;5012645;28;4442;-67
2024/01/27 07:10:13;;;;;;;;;;;17.60;61.60;;;;;;5014348;28;4390;-66
2024/01/27 07:12:38;;;;;;;;;;;17.60;61.60;;;;;;5012198;28;4685;-70
2024/01/27 07:15:04;;;;;;;;;;;17.60;61.70;;;;;;5025236;28;3269;-67
2024/01/27 07:17:29;;;;;;;;;;;17.60;61.70;;;;;;5020563;28;2004;-66
2024/01/27 07:19:55;;;;;;;;;;;17.60;61.70;;;;;;5029757;28;1116;-67
2024/01/27 07:22:20;;;;;;;;;;;17.60;61.70;;;;;;5031817;28;887;-65
2024/01/27 07:24:46;;;;;;;;;;;17.60;61.70;;;;;;5020306;28;1906;-66
2024/01/27 07:27:12;;;;;;;;;;;17.60;62.50;;;;;;5018220;28;1269;-66
2024/01/27 07:29:37;;;;;;;;;;;17.60;61.80;;;;;;5018061;28;1088;-68
2024/01/27 07:32:03;;;;;;;;;;;17.50;61.70;;;;;;5018566;28;1473;-68
2024/01/27 07:34:28;;;;;;;;;;;17.60;61.80;;;;;;5019294;28;1464;-67
2024/01/27 07:36:54;;;;;;;;;;;17.50;61.70;;;;;;5020276;28;1634;-66
2024/01/27 07:39:19;;;;;;;;;;;17.50;61.80;;;;;;5017686;28;1360;-67
2024/01/27 07:41:45;;;;;;;;;;;17.50;61.80;;;;;;5018219;28;1568;-71
2024/01/27 07:44:11;;;;;;;;;;;17.50;61.80;;;;;;5016722;28;1969;-68
2024/01/27 07:46:39;;;;;;;;;;;17.50;61.90;;;;;;5018136;28;1363;-67
2024/01/27 07:49:05;;;;;;;;;;;17.50;61.90;;;;;;5027274;28;1585;-66
2024/01/27 07:51:31;;;;;;;;;;;17.50;61.90;;;;;;5023221;28;801;-68
2024/01/27 07:53:56;;;;;;;;;;;17.50;62.00;;;;;;5021169;28;1515;-66
2024/01/27 07:56:21;;;;;;;;;;;17.50;62.00;;;;;;5018043;28;1300;-67
2024/01/27 07:58:47;;;;;;;;;;;17.50;62.00;;;;;;5019710;28;1446;-66
2024/01/27 08:01:16;;;;;;;;;;;17.50;62.00;;;;;;5017913;28;1968;-66
2024/01/27 08:03:41;;;;;;;;;;;17.50;62.00;;;;;;5016576;28;1910;-66
2024/01/27 08:06:09;;;;;;;;;;;17.50;62.10;;;;;;5013876;28;1446;-66
2024/01/27 08:08:35;;;;;;;;;;;17.50;62.10;;;;;;5013990;28;1302;-66
2024/01/27 08:11:00;;;;;;;;;;;17.50;62.10;;;;;;5017952;28;1305;-67
2024/01/27 08:13:26;;;;;;;;;;;17.50;62.10;;;;;;5017121;28;1524;-67
2024/01/27 08:15:51;;;;;;;;;;;17.40;62.00;;;;;;5018316;28;1452;-66
2024/01/27 08:18:17;;;;;;;;;;;17.40;62.10;;;;;;5017850;28;1245;-66
2024/01/27 08:20:42;;;;;;;;;;;17.50;62.10;;;;;;5017590;28;1642;-67
2024/01/27 08:23:09;;;;;;;;;;;17.40;62.10;;;;;;5018051;28;1351;-66
2024/01/27 08:25:34;;;;;;;;;;;17.40;62.10;;;;;;5010014;28;4053;-67
2024/01/27 08:28:03;;;;;;;;;;;17.40;62.20;;;;;;5018406;28;1528;-67
2024/01/27 08:30:28;;;;;;;;;;;17.40;62.10;;;;;;5018512;28;1813;-67
2024/01/27 08:32:54;;;;;;;;;;;17.40;62.10;;;;;;5015937;28;1485;-66
2024/01/27 08:35:19;;;;;;;;;;;17.40;62.10;;;;;;5014796;28;1527;-67
2024/01/27 08:37:45;;;;;;;;;;;17.40;62.80;;;;;;5018350;28;1566;-66
2024/01/27 08:40:12;;;;;;;;;;;17.50;62.10;;;;;;5020722;28;1906;-66
2024/01/27 08:42:37;;;;;;;;;;;17.50;62.10;;;;;;5022890;28;1464;-66
2024/01/27 08:45:03;;;;;;;;;;;17.50;62.00;;;;;;5021972;28;1918;-66
2024/01/27 08:47:28;;;;;;;;;;;17.50;62.00;;;;;;5019083;28;1428;-67
2024/01/27 08:49:54;;;;;;;;;;;17.50;62.00;;;;;;5020287;28;1672;-67
2024/01/27 08:52:19;;;;;;;;;;;17.50;62.00;;;;;;5021283;28;1889;-67
2024/01/27 08:54:44;;;;;;;;;;;17.50;61.90;;;;;;5020125;28;1355;-67
2024/01/27 08:57:10;;;;;;;;;;;17.50;61.90;;;;;;5017806;28;1773;-67
2024/01/27 08:59:35;;;;;;;;;;;17.50;61.80;;;;;;5019321;28;1296;-67
2024/01/27 09:02:01;;;;;;;;;;;17.50;61.80;;;;;;5021889;28;1458;-67
2024/01/27 09:04:26;;;;;;;;;;;17.50;61.80;;;;;;5022475;28;1910;-67
2024/01/27 09:06:52;;;;;;;;;;;17.50;61.80;;;;;;5028985;28;1363;-68
2024/01/27 09:09:17;;;;;;;;;;;17.60;61.80;;;;;;5025272;28;1348;-67
2024/01/27 09:11:43;;;;;;;;;;;17.60;61.80;;;;;;5020113;28;1531;-67
2024/01/27 09:14:08;;;;;;;;;;;17.60;61.70;;;;;;5023318;28;1337;-68
2024/01/27 09:16:34;;;;;;;;;;;17.60;61.70;;;;;;5021165;28;1402;-67
2024/01/27 09:19:00;;;;;;;;;;;17.60;61.70;;;;;;5022233;28;1494;-67
2024/01/27 09:21:28;;;;;;;;;;;17.60;61.70;;;;;;5023301;28;1444;-67
2024/01/27 09:23:54;;;;;;;;;;;17.60;61.60;;;;;;5021075;28;1949;-67
2024/01/27 09:26:19;;;;;;;;;;;17.60;61.60;;;;;;5004263;28;1464;-68
2024/01/27 09:28:53;;;;;;;;;;;17.60;61.60;;;;;;5018637;28;1657;-67
2024/01/27 09:31:21;;;;;;;;;;;17.60;61.50;;;;;;5017849;28;1411;-67
2024/01/27 09:33:48;;;;;;;;;;;17.60;61.50;;;;;;5020161;28;1560;-67
2024/01/27 09:36:13;;;;;;;;;;;17.70;61.50;;;;;;5021129;28;1572;-67
2024/01/27 09:38:39;;;;;;;;;;;17.60;61.50;;;;;;5022380;28;1484;-68
2024/01/27 09:41:04;;;;;;;;;;;17.70;61.40;;;;;;5024527;28;1342;-66
2024/01/27 09:43:30;;;;;;;;;;;17.60;61.40;;;;;;5021696;28;1894;-67
2024/01/27 09:45:55;;;;;;;;;;;17.70;61.40;;;;;;5024176;28;1455;-67
2024/01/27 09:48:20;;;;;;;;;;;17.70;61.40;;;;;;5021141;28;1366;-67
2024/01/27 09:50:46;;;;;;;;;;;17.70;61.30;;;;;;5021349;28;1502;-67
2024/01/27 09:53:12;;;;;;;;;;;17.70;61.40;;;;;;5020625;28;1690;-67
2024/01/27 09:55:37;;;;;;;;;;;17.70;62.10;;;;;;5022926;28;1529;-67
2024/01/27 09:58:03;;;;;;;;;;;17.70;61.30;;;;;;5023494;28;1570;-67
2024/01/27 10:00:29;;;;;;;;;;;17.70;61.40;;;;;;5029420;28;1608;-67
2024/01/27 10:02:54;;;;;;;;;;;17.70;61.40;;;;;;5020341;28;1552;-67
2024/01/27 10:05:20;;;;;;;;;;;17.70;61.40;;;;;;5022671;28;1977;-67
2024/01/27 10:07:45;;;;;;;;;;;17.60;61.40;;;;;;5019522;28;1318;-66
2024/01/27 10:10:11;;;;;;;;;;;17.70;61.50;;;;;;5020385;28;1618;-67
2024/01/27 10:12:42;;;;;;;;;;;17.60;61.40;;;;;;5019395;28;1393;-67
2024/01/27 10:15:20;;;;;;;;;;;17.60;61.50;;;;;;5023257;28;1383;-68
2024/01/27 10:17:46;;;;;;;;;;;17.60;61.50;;;;;;5019783;28;1581;-67
2024/01/27 10:20:13;;;;;;;;;;;17.60;61.50;;;;;;5016056;28;1665;-67
2024/01/27 10:22:39;;;;;;;;;;;17.60;61.60;;;;;;5021016;28;1302;-67
2024/01/27 10:25:05;;;;;;;;;;;17.60;61.60;;;;;;5019722;28;1926;-67
2024/01/27 10:27:31;;;;;;;;;;;17.60;61.60;;;;;;5018128;28;1729;-67
2024/01/27 10:29:56;;;;;;;;;;;17.60;61.70;;;;;;5022732;28;1659;-67
2024/01/27 10:32:25;;;;;;;;;;;17.60;61.70;;;;;;5020448;28;1418;-67
2024/01/27 10:35:10;;;;;;;;;;;17.60;61.70;;;;;;5023566;28;1594;-66
2024/01/27 10:37:36;;;;;;;;;;;17.60;61.70;;;;;;5019164;28;1284;-66
2024/01/27 10:40:07;;;;;;;;;;;17.60;61.70;;;;;;5022186;28;844;-67
2024/01/27 10:42:32;;;;;;;;;;;17.60;61.70;;;;;;5022132;28;840;-66
2024/01/27 10:44:59;;;;;;;;;;;17.60;61.70;;;;;;5023481;28;1899;-67
2024/01/27 10:47:28;;;;;;;;;;;17.60;61.70;;;;;;5018704;28;1483;-66
2024/01/27 10:49:54;;;;;;;;;;;17.60;61.70;;;;;;5019412;28;1724;-67
2024/01/27 10:52:20;;;;;;;;;;;17.60;61.70;;;;;;5016997;28;1654;-66
2024/01/27 10:54:45;;;;;;;;;;;17.60;61.70;;;;;;5017478;28;1660;-67
2024/01/27 10:57:11;;;;;;;;;;;17.60;61.60;;;;;;5027137;28;1627;-67
2024/01/27 10:59:36;;;;;;;;;;;17.60;61.70;;;;;;5017347;28;1196;-67
2024/01/27 11:02:02;;;;;;;;;;;17.60;61.60;;;;;;5017221;28;1495;-67
2024/01/27 11:04:28;;;;;;;;;;;17.60;61.60;;;;;;5017025;28;1960;-67
2024/01/27 11:06:53;;;;;;;;;;;17.60;61.60;;;;;;5021814;28;1366;-67
2024/01/27 11:09:19;;;;;;;;;;;17.60;61.60;;;;;;5017423;28;1738;-68
2024/01/27 11:11:45;;;;;;;;;;;17.60;61.60;;;;;;5019552;28;1571;-67
2024/01/27 11:14:13;;;;;;;;;;;17.60;61.60;;;;;;5016147;28;1871;-67
2024/01/27 11:16:43;;;;;;;;;;;17.60;61.50;;;;;;5017011;28;2112;-66
2024/01/27 11:19:12;;;;;;;;;;;17.60;61.50;;;;;;5016259;28;1359;-66
2024/01/27 11:21:37;;;;;;;;;;;17.60;61.50;;;;;;5016809;28;1153;-66
2024/01/27 11:24:13;;;;;;;;;;;17.60;61.50;;;;;;5025621;28;1902;-66
2024/01/27 11:26:38;;;;;;;;;;;17.70;61.50;;;;;;5020629;28;1231;-66
2024/01/27 11:29:09;;;;;;;;;;;17.60;61.50;;;;;;5018623;28;1734;-67
2024/01/27 11:31:35;;;;;;;;;;;17.60;61.50;;;;;;5020865;28;1069;-66
2024/01/27 11:34:00;;;;;;;;;;;17.70;61.50;;;;;;5025485;28;1702;-66
2024/01/27 11:36:26;;;;;;;;;;;17.70;61.50;;;;;;5016046;28;1553;-66
2024/01/27 11:38:52;;;;;;;;;;;17.60;61.40;;;;;;5019044;28;1384;-66
2024/01/27 11:41:25;;;;;;;;;;;17.60;61.40;;;;;;5016302;28;1445;-66
2024/01/27 11:43:57;;;;;;;;;;;17.60;61.40;;;;;;5017750;28;1964;-66
2024/01/27 11:46:23;;;;;;;;;;;17.70;61.40;;;;;;5016935;28;1397;-66
2024/01/27 11:48:48;;;;;;;;;;;17.70;61.40;;;;;;5017419;28;1222;-66
2024/01/27 11:51:14;;;;;;;;;;;17.70;61.40;;;;;;5018409;28;1981;-67
2024/01/27 11:53:39;;;;;;;;;;;17.70;61.40;;;;;;5017261;28;1440;-67
2024/01/27 11:56:05;;;;;;;;;;;17.70;61.40;;;;;;5020289;28;1435;-66
2024/01/27 11:58:31;;;;;;;;;;;17.70;61.50;;;;;;5025989;28;1354;-66
2024/01/27 12:00:57;;;;;;;;;;;17.70;61.40;;;;;;5020716;28;1375;-67
2024/01/27 12:03:22;;;;;;;;;;;17.70;61.40;;;;;;5016481;28;1722;-66
2024/01/27 12:05:48;;;;;;;;;;;17.70;61.50;;;;;;5019443;28;1961;-66
2024/01/27 12:08:13;;;;;;;;;;;17.60;61.40;;;;;;5016235;28;1805;-66
2024/01/27 12:10:39;;;;;;;;;;;17.70;61.50;;;;;;5016788;28;1335;-66
2024/01/27 12:13:04;;;;;;;;;;;17.60;61.50;;;;;;5017570;28;1438;-66
2024/01/27 12:15:30;;;;;;;;;;;17.60;61.60;;;;;;5018247;28;1430;-66
2024/01/27 12:17:55;;;;;;;;;;;17.60;61.60;;;;;;5020781;28;1482;-66
2024/01/27 12:20:22;;;;;;;;;;;17.60;61.60;;;;;;5021748;28;1488;-67
2024/01/27 12:22:49;;;;;;;;;;;17.60;61.60;;;;;;5018524;28;1262;-66
2024/01/27 12:25:14;;;;;;;;;;;17.60;61.60;;;;;;5042916;28;1959;-66
2024/01/27 12:27:40;;;;;;;;;;;17.60;61.70;;;;;;5017493;28;1543;-66
2024/01/27 12:30:06;;;;;;;;;;;17.60;61.70;;;;;;5020436;28;1435;-66
2024/01/27 12:32:31;;;;;;;;;;;17.60;61.70;;;;;;5019919;28;1636;-66
2024/01/27 12:34:59;;;;;;;;;;;17.60;61.70;;;;;;5021402;28;1364;-66
2024/01/27 12:37:24;;;;;;;;;;;17.60;61.80;;;;;;5016674;28;1795;-66
2024/01/27 12:39:50;;;;;;;;;;;17.60;61.80;;;;;;5015697;28;1563;-67
2024/01/27 12:42:16;;;;;;;;;;;17.60;61.70;;;;;;5016902;28;1411;-67
2024/01/27 12:44:42;;;;;;;;;;;17.60;61.70;;;;;;5016898;28;1965;-67
2024/01/27 12:47:07;;;;;;;;;;;17.60;61.70;;;;;;5016714;28;1990;-68
2024/01/27 12:49:33;;;;;;;;;;;17.60;61.70;;;;;;5015697;28;1925;-68
2024/01/27 12:51:59;;;;;;;;;;;17.60;61.60;;;;;;5015088;28;1472;-68
2024/01/27 12:54:24;;;;;;;;;;;17.60;61.60;;;;;;5015685;28;1265;-68
2024/01/27 12:56:50;;;;;;;;;;;17.60;62.30;;;;;;5016808;28;1462;-67
2024/01/27 12:59:15;;;;;;;;;;;17.60;61.60;;;;;;5015923;28;1215;-66
2024/01/27 13:01:41;;;;;;;;;;;17.60;61.50;;;;;;5015694;28;1482;-67
2024/01/27 13:04:06;;;;;;;;;;;17.70;61.60;;;;;;5013999;28;1918;-67
2024/01/27 13:06:31;;;;;;;;;;;17.70;61.50;;;;;;5019097;28;1416;-67
2024/01/27 13:08:57;;;;;;;;;;;17.70;61.50;;;;;;5019175;28;1478;-67
2024/01/27 13:11:22;;;;;;;;;;;17.70;61.40;;;;;;5017721;28;1142;-67
2024/01/27 13:13:48;;;;;;;;;;;17.70;61.40;;;;;;5047601;28;1314;-66
2024/01/27 13:16:13;;;;;;;;;;;17.70;61.40;;;;;;5018498;28;1667;-66
2024/01/27 13:18:39;;;;;;;;;;;17.70;61.40;;;;;;5016142;28;1355;-66
2024/01/27 13:21:05;;;;;;;;;;;17.70;61.40;;;;;;5016410;28;1490;-69
2024/01/27 13:23:31;;;;;;;;;;;17.70;61.30;;;;;;5016822;28;1922;-67
2024/01/27 13:25:57;;;;;;;;;;;17.70;61.30;;;;;;5016476;28;1492;-66
2024/01/27 13:28:22;;;;;;;;;;;17.70;61.30;;;;;;5018159;28;1482;-67
2024/01/27 13:30:49;;;;;;;;;;;17.70;61.30;;;;;;5022039;28;1317;-66
2024/01/27 13:33:15;;;;;;;;;;;17.70;61.20;;;;;;5019772;28;1435;-66
2024/01/27 13:35:42;;;;;;;;;;;17.70;61.30;;;;;;5021371;28;1428;-67
2024/01/27 13:38:08;;;;;;;;;;;17.70;61.30;;;;;;5020388;28;1597;-66
2024/01/27 13:40:33;;;;;;;;;;;17.70;61.30;;;;;;5019728;28;914;-67
2024/01/27 13:43:00;;;;;;;;;;;17.70;61.30;;;;;;5019874;28;1440;-67
2024/01/27 13:45:25;;;;;;;;;;;17.70;61.30;;;;;;5020765;28;1970;-66
2024/01/27 13:47:51;;;;;;;;;;;17.70;61.30;;;;;;5017920;28;1242;-67
2024/01/27 13:50:16;;;;;;;;;;;17.70;61.40;;;;;;5025001;28;870;-67
2024/01/27 13:52:44;;;;;;;;;;;17.70;61.40;;;;;;5019559;28;1324;-66
2024/01/27 13:55:10;;;;;;;;;;;17.70;61.40;;;;;;5023134;28;1569;-67
2024/01/27 13:57:35;;;;;;;;;;;17.70;61.50;;;;;;5020038;28;1395;-67
2024/01/27 14:00:01;;;;;;;;;;;17.70;61.50;;;;;;5022325;28;1235;-66
2024/01/27 14:02:26;;;;;;;;;;;17.70;61.50;;;;;;5020731;28;1440;-66
2024/01/27 14:04:52;;;;;;;;;;;17.60;61.50;;;;;;5021377;28;1962;-66
2024/01/27 14:07:17;;;;;;;;;;;17.60;61.50;;;;;;5022611;28;1534;-67
2024/01/27 14:09:44;;;;;;;;;;;17.60;61.60;;;;;;5021274;28;1556;-67
2024/01/27 14:12:09;;;;;;;;;;;17.60;61.60;;;;;;5019544;28;1532;-66
2024/01/27 14:14:38;;;;;;;;;;;17.60;61.60;;;;;;5018661;28;1360;-66
2024/01/27 14:17:04;;;;;;;;;;;17.60;61.60;;;;;;5022242;28;1483;-67
2024/01/27 14:19:29;;;;;;;;;;;17.60;61.60;;;;;;5021345;28;1493;-67
2024/01/27 14:21:55;;;;;;;;;;;17.60;61.60;;;;;;5021172;28;1560;-67